Thunder radar more information blitzortung!


Radar de pluja more information rain snow radar


Visita la nostra xarxa de llocs de meteo:

Template documentation
and downloads

And another site



No particular awareness of the weather is required.    There are no Weather-warnings

Pagina Historial Weather Underground text

Diari Resum May 8, 2017 Unitats:  Tant    Imperial   Mètric
« Previous Dia
SegĂźent Dia »
Diari Setmana Mensual Anual Personalitzada
  Maxima: Minima: Media:
Temperatura: TemperatureC °F /  -17.8 °C 10.7 °F /  -11.8 °C 17.7 °F /  -7.9 °C
Punt de rosada: DewpointC °F /  -17.8 °C 7.4 °F /  -13.7 °C 10.1 °F /  -12.2 °C
Humitat: Humidity % 48 % 62 %
Wind Speed: WindSpeedKMH mph /  0 km/h - 6.2 mph /  10 km/h
RĂ fegues de vent: WindSpeedGustKMH mph /  0 km/h - -
Vent:- - SSE
Pression baro: PressurehPa in /  0 hPa 1014.8 in /  34361.1 hPa -
Precipitacions: 0.0 in /  0 mm    
Historical Graphs
 
 
Dades de taula per May 8, 2017
Temps Temperatura Punt de rosada Pression baro Vent Wind Speed RĂ fegues de vent Humitat Rainfall Rate (Hourly)
TemperatureC °F /  -17.8 °C DewpointC °F /  -17.8 °C PressurehPa in /  0 hPa Calm     Humidity % HourlyPrecipMM in /  0 mm
00:00 13.9 °F /  -10.1 °C 9.6 °F /  -12.4 °C 1019.9 in /  34533.8 hPa NE 4.2 mph /  6.8 km/h 4.2 mph /  6.8 km/h 75 % 0.0 in /  0 mm
00:05 13.9 °F /  -10.1 °C 9.6 °F /  -12.4 °C 1019.9 in /  34533.8 hPa NE 5.6 mph /  9 km/h 5.6 mph /  9 km/h 75 % 0.0 in /  0 mm
00:10 11.0 °F /  -11.7 °C 7.7 °F /  -13.5 °C 1018.8 in /  34496.6 hPa SW 1.6 mph /  2.6 km/h 3.2 mph /  5.1 km/h 80 % 0.0 in /  0 mm
00:20 10.9 °F /  -11.7 °C 7.8 °F /  -13.4 °C 1018.8 in /  34496.6 hPa Calm   1.6 mph /  2.6 km/h 81 % 0.0 in /  0 mm
00:30 10.9 °F /  -11.7 °C 7.9 °F /  -13.4 °C 1018.8 in /  34496.6 hPa Calm     82 % 0.0 in /  0 mm
00:40 10.9 °F /  -11.7 °C 7.9 °F /  -13.4 °C 1018.8 in /  34496.6 hPa WNW 1.6 mph /  2.6 km/h 1.6 mph /  2.6 km/h 82 % 0.0 in /  0 mm
00:50 10.8 °F /  -11.8 °C 7.8 °F /  -13.4 °C 1017.8 in /  34462.7 hPa Calm     82 % 0.0 in /  0 mm
01:00 10.8 °F /  -11.8 °C 8.0 °F /  -13.3 °C 1017.8 in /  34462.7 hPa Calm   3.2 mph /  5.1 km/h 83 % 0.0 in /  0 mm
01:10 10.7 °F /  -11.8 °C 7.8 °F /  -13.4 °C 1017.8 in /  34462.7 hPa Calm   1.6 mph /  2.6 km/h 82 % 0.0 in /  0 mm
01:20 10.7 °F /  -11.8 °C 7.8 °F /  -13.4 °C 1018.8 in /  34496.6 hPa SW 1.6 mph /  2.6 km/h 1.6 mph /  2.6 km/h 82 % 0.0 in /  0 mm
01:30 10.8 °F /  -11.8 °C 8.0 °F /  -13.3 °C 1018.8 in /  34496.6 hPa Calm   1.6 mph /  2.6 km/h 83 % 0.0 in /  0 mm
01:40 10.8 °F /  -11.8 °C 8.0 °F /  -13.3 °C 1018.8 in /  34496.6 hPa Calm     83 % 0.0 in /  0 mm
01:50 10.8 °F /  -11.8 °C 8.2 °F /  -13.2 °C 1018.8 in /  34496.6 hPa Calm     84 % 0.0 in /  0 mm
02:00 10.9 °F /  -11.7 °C 8.1 °F /  -13.3 °C 1018.8 in /  34496.6 hPa Calm     83 % 0.0 in /  0 mm
02:10 11.0 °F /  -11.7 °C 8.4 °F /  -13.1 °C 1017.8 in /  34462.7 hPa Calm     84 % 0.0 in /  0 mm
02:20 11.1 °F /  -11.6 °C 8.5 °F /  -13.1 °C 1017.8 in /  34462.7 hPa SW 1.6 mph /  2.6 km/h 1.6 mph /  2.6 km/h 84 % 0.0 in /  0 mm
02:30 11.3 °F /  -11.5 °C 8.7 °F /  -12.9 °C 1017.8 in /  34462.7 hPa Calm   1.6 mph /  2.6 km/h 84 % 0.0 in /  0 mm
02:40 12.0 °F /  -11.1 °C 9.6 °F /  -12.4 °C 1018.8 in /  34496.6 hPa Calm     85 % 0.0 in /  0 mm
02:50 12.3 °F /  -10.9 °C 9.5 °F /  -12.5 °C 1017.8 in /  34462.7 hPa Calm     83 % 0.0 in /  0 mm
03:00 13.0 °F /  -10.6 °C 10.2 °F /  -12.1 °C 1017.8 in /  34462.7 hPa ESE 1.6 mph /  2.6 km/h 1.6 mph /  2.6 km/h 83 % 0.0 in /  0 mm
03:10 12.9 °F /  -10.6 °C 9.7 °F /  -12.4 °C 1018.8 in /  34496.6 hPa SSE 1.6 mph /  2.6 km/h 3.2 mph /  5.1 km/h 81 % 0.0 in /  0 mm
03:20 13.1 °F /  -10.5 °C 9.7 °F /  -12.4 °C 1018.8 in /  34496.6 hPa South 1.6 mph /  2.6 km/h 3.2 mph /  5.1 km/h 80 % 0.0 in /  0 mm
03:30 13.1 °F /  -10.5 °C 9.7 °F /  -12.4 °C 1018.8 in /  34496.6 hPa SSW 3.2 mph /  5.1 km/h 3.2 mph /  5.1 km/h 80 % 0.0 in /  0 mm
03:40 13.4 °F /  -10.3 °C 10.0 °F /  -12.2 °C 1018.8 in /  34496.6 hPa WSW 1.6 mph /  2.6 km/h 3.2 mph /  5.1 km/h 80 % 0.0 in /  0 mm
03:50 14.1 °F /  -9.9 °C 10.5 °F /  -11.9 °C 1018.8 in /  34496.6 hPa North 1.6 mph /  2.6 km/h 4.8 mph /  7.7 km/h 79 % 0.0 in /  0 mm
04:00 14.1 °F /  -9.9 °C 10.3 °F /  -12.1 °C 1018.8 in /  34496.6 hPa NE 4.8 mph /  7.7 km/h 6.4 mph /  10.3 km/h 78 % 0.0 in /  0 mm
04:10 14.4 °F /  -9.8 °C 10.4 °F /  -12 °C 1018.8 in /  34496.6 hPa NE 3.2 mph /  5.1 km/h 8.0 mph /  12.9 km/h 77 % 0.0 in /  0 mm
04:20 14.3 °F /  -9.8 °C 9.9 °F /  -12.3 °C 1018.8 in /  34496.6 hPa NE 9.7 mph /  15.6 km/h 9.7 mph /  15.6 km/h 75 % 0.0 in /  0 mm
04:30 14.4 °F /  -9.8 °C 10.0 °F /  -12.2 °C 1018.8 in /  34496.6 hPa ENE 8.0 mph /  12.9 km/h 9.7 mph /  15.6 km/h 75 % 0.0 in /  0 mm
04:40 14.3 °F /  -9.8 °C 9.9 °F /  -12.3 °C 1018.8 in /  34496.6 hPa NE 4.8 mph /  7.7 km/h 12.9 mph /  20.8 km/h 75 % 0.0 in /  0 mm
04:50 14.9 °F /  -9.5 °C 10.3 °F /  -12.1 °C 1018.8 in /  34496.6 hPa ENE 4.8 mph /  7.7 km/h 6.4 mph /  10.3 km/h 74 % 0.0 in /  0 mm
05:00 15.5 °F /  -9.2 °C 10.7 °F /  -11.8 °C 1018.8 in /  34496.6 hPa NE 4.8 mph /  7.7 km/h 6.4 mph /  10.3 km/h 73 % 0.0 in /  0 mm
05:10 15.5 °F /  -9.2 °C 10.7 °F /  -11.8 °C 1018.8 in /  34496.6 hPa NE 8.0 mph /  12.9 km/h 8.0 mph /  12.9 km/h 73 % 0.0 in /  0 mm
10:16 15.7 °F /  -9.1 °C 10.4 °F /  -12 °C 1018.8 in /  34496.6 hPa NE 7.4 mph /  11.9 km/h 7.4 mph /  11.9 km/h 71 % 0.0 in /  0 mm
10:21 15.6 °F /  -9.1 °C 10.2 °F /  -12.1 °C 1018.8 in /  34496.6 hPa NNE 7.4 mph /  11.9 km/h 7.4 mph /  11.9 km/h 70 % 0.0 in /  0 mm
10:26 16.4 °F /  -8.7 °C 11.1 °F /  -11.6 °C 1018.8 in /  34496.6 hPa West 5.6 mph /  9 km/h 5.6 mph /  9 km/h 71 % 0.0 in /  0 mm
10:31 17.0 °F /  -8.3 °C 11.3 °F /  -11.5 °C 1018.8 in /  34496.6 hPa NE 5.8 mph /  9.3 km/h 5.8 mph /  9.3 km/h 69 % 0.0 in /  0 mm
10:36 17.2 °F /  -8.2 °C 11.2 °F /  -11.6 °C 1018.8 in /  34496.6 hPa NW 5.6 mph /  9 km/h 5.6 mph /  9 km/h 68 % 0.0 in /  0 mm
10:41 17.3 °F /  -8.2 °C 11.1 °F /  -11.6 °C 1018.8 in /  34496.6 hPa ENE 6.1 mph /  9.8 km/h 6.1 mph /  9.8 km/h 67 % 0.0 in /  0 mm
10:46 17.1 °F /  -8.3 °C 10.9 °F /  -11.7 °C 1018.8 in /  34496.6 hPa North 7.4 mph /  11.9 km/h 7.4 mph /  11.9 km/h 67 % 0.0 in /  0 mm
10:47 17.1 °F /  -8.3 °C 10.9 °F /  -11.7 °C 1018.8 in /  34496.6 hPa WNW 7.4 mph /  11.9 km/h 7.4 mph /  11.9 km/h 67 % 0.0 in /  0 mm
10:52 17.3 °F /  -8.2 °C 10.9 °F /  -11.7 °C 1018.8 in /  34496.6 hPa NNE 7.6 mph /  12.2 km/h 7.6 mph /  12.2 km/h 66 % 0.0 in /  0 mm
10:57 17.4 °F /  -8.1 °C 11.0 °F /  -11.7 °C 1018.8 in /  34496.6 hPa NW 5.6 mph /  9 km/h 5.6 mph /  9 km/h 66 % 0.0 in /  0 mm
11:02 17.8 °F /  -7.9 °C 11.1 °F /  -11.6 °C 1018.8 in /  34496.6 hPa NW 5.6 mph /  9 km/h 5.6 mph /  9 km/h 65 % 0.0 in /  0 mm
11:07 18.3 °F /  -7.6 °C 11.8 °F /  -11.2 °C 1018.8 in /  34496.6 hPa NW 3.7 mph /  6 km/h 3.7 mph /  6 km/h 66 % 0.0 in /  0 mm
11:12 18.3 °F /  -7.6 °C 11.1 °F /  -11.6 °C 1018.8 in /  34496.6 hPa East 11.1 mph /  17.9 km/h 11.1 mph /  17.9 km/h 63 % 0.0 in /  0 mm
11:17 18.3 °F /  -7.6 °C 11.4 °F /  -11.4 °C 1018.8 in /  34496.6 hPa ENE 7.4 mph /  11.9 km/h 7.4 mph /  11.9 km/h 64 % 0.0 in /  0 mm
11:22 18.6 °F /  -7.4 °C 11.4 °F /  -11.4 °C 1018.8 in /  34496.6 hPa ENE 7.4 mph /  11.9 km/h 7.4 mph /  11.9 km/h 63 % 0.0 in /  0 mm
11:27 18.8 °F /  -7.3 °C 11.6 °F /  -11.3 °C 1018.8 in /  34496.6 hPa ENE 7.4 mph /  11.9 km/h 7.4 mph /  11.9 km/h 63 % 0.0 in /  0 mm
11:32 18.7 °F /  -7.4 °C 11.3 °F /  -11.5 °C 1018.8 in /  34496.6 hPa ESE 7.4 mph /  11.9 km/h 7.4 mph /  11.9 km/h 62 % 0.0 in /  0 mm
11:37 19.0 °F /  -7.2 °C 11.3 °F /  -11.5 °C 1018.8 in /  34496.6 hPa NE 5.6 mph /  9 km/h 5.6 mph /  9 km/h 61 % 0.0 in /  0 mm
11:42 19.3 °F /  -7.1 °C 11.6 °F /  -11.3 °C 1018.8 in /  34496.6 hPa SSW 5.6 mph /  9 km/h 5.6 mph /  9 km/h 61 % 0.0 in /  0 mm
11:47 20.2 °F /  -6.6 °C 12.2 °F /  -11 °C 1018.8 in /  34496.6 hPa SW 5.6 mph /  9 km/h 5.6 mph /  9 km/h 60 % 0.0 in /  0 mm
11:52 19.9 °F /  -6.7 °C 11.4 °F /  -11.4 °C 1018.8 in /  34496.6 hPa SW 3.7 mph /  6 km/h 3.7 mph /  6 km/h 58 % 0.0 in /  0 mm
11:57 20.2 °F /  -6.6 °C 11.9 °F /  -11.2 °C 1018.8 in /  34496.6 hPa West 5.3 mph /  8.5 km/h 5.3 mph /  8.5 km/h 59 % 0.0 in /  0 mm
12:02 20.5 °F /  -6.4 °C 11.9 °F /  -11.2 °C 1018.8 in /  34496.6 hPa SW 5.6 mph /  9 km/h 5.6 mph /  9 km/h 58 % 0.0 in /  0 mm
12:07 21.0 °F /  -6.1 °C 12.2 °F /  -11 °C 1018.8 in /  34496.6 hPa WSW 3.7 mph /  6 km/h 3.9 mph /  6.3 km/h 57 % 0.0 in /  0 mm
12:12 20.6 °F /  -6.3 °C 11.8 °F /  -11.2 °C 1017.8 in /  34462.7 hPa SW 7.4 mph /  11.9 km/h 7.4 mph /  11.9 km/h 57 % 0.0 in /  0 mm
12:17 21.1 °F /  -6.1 °C 12.2 °F /  -11 °C 1017.8 in /  34462.7 hPa NNW 4.2 mph /  6.8 km/h 4.2 mph /  6.8 km/h 57 % 0.0 in /  0 mm
12:22 21.5 °F /  -5.8 °C 12.1 °F /  -11.1 °C 1017.8 in /  34462.7 hPa ENE 5.3 mph /  8.5 km/h 5.3 mph /  8.5 km/h 55 % 0.0 in /  0 mm
12:23 21.3 °F /  -5.9 °C 11.9 °F /  -11.2 °C 1017.8 in /  34462.7 hPa SE 7.9 mph /  12.7 km/h 7.9 mph /  12.7 km/h 55 % 0.0 in /  0 mm
12:28 20.9 °F /  -6.2 °C 11.5 °F /  -11.4 °C 1017.8 in /  34462.7 hPa NE 5.6 mph /  9 km/h 5.6 mph /  9 km/h 55 % 0.0 in /  0 mm
12:33 21.6 °F /  -5.8 °C 11.6 °F /  -11.3 °C 1017.8 in /  34462.7 hPa SE 11.1 mph /  17.9 km/h 11.1 mph /  17.9 km/h 53 % 0.0 in /  0 mm
12:38 21.8 °F /  -5.7 °C 11.8 °F /  -11.2 °C 1017.8 in /  34462.7 hPa ESE 5.6 mph /  9 km/h 5.6 mph /  9 km/h 53 % 0.0 in /  0 mm
12:43 21.7 °F /  -5.7 °C 12.3 °F /  -10.9 °C 1016.8 in /  34428.8 hPa West 5.6 mph /  9 km/h 5.6 mph /  9 km/h 55 % 0.0 in /  0 mm
12:48 21.8 °F /  -5.7 °C 12.1 °F /  -11.1 °C 1016.8 in /  34428.8 hPa South 5.6 mph /  9 km/h 5.6 mph /  9 km/h 54 % 0.0 in /  0 mm
12:53 22.1 °F /  -5.5 °C 11.8 °F /  -11.2 °C 1016.8 in /  34428.8 hPa South 5.6 mph /  9 km/h 5.6 mph /  9 km/h 52 % 0.0 in /  0 mm
12:58 21.5 °F /  -5.8 °C 10.9 °F /  -11.7 °C 1017.8 in /  34462.7 hPa ESE 11.1 mph /  17.9 km/h 11.1 mph /  17.9 km/h 51 % 0.0 in /  0 mm
13:03 21.2 °F /  -6 °C 10.7 °F /  -11.8 °C 1017.8 in /  34462.7 hPa ESE 9.0 mph /  14.5 km/h 9.0 mph /  14.5 km/h 51 % 0.0 in /  0 mm
13:08 21.1 °F /  -6.1 °C 10.6 °F /  -11.9 °C 1017.8 in /  34462.7 hPa NE 9.3 mph /  15 km/h 9.3 mph /  15 km/h 51 % 0.0 in /  0 mm
13:13 21.7 °F /  -5.7 °C 11.1 °F /  -11.6 °C 1017.8 in /  34462.7 hPa SSE 6.1 mph /  9.8 km/h 6.1 mph /  9.8 km/h 51 % 0.0 in /  0 mm
13:18 22.7 °F /  -5.2 °C 12.1 °F /  -11.1 °C 1017.8 in /  34462.7 hPa SSE 7.4 mph /  11.9 km/h 7.4 mph /  11.9 km/h 51 % 0.0 in /  0 mm
13:23 23.0 °F /  -5 °C 11.7 °F /  -11.3 °C 1017.8 in /  34462.7 hPa South 4.7 mph /  7.6 km/h 4.7 mph /  7.6 km/h 49 % 0.0 in /  0 mm
13:28 22.0 °F /  -5.6 °C 10.8 °F /  -11.8 °C 1017.8 in /  34462.7 hPa South 9.3 mph /  15 km/h 9.3 mph /  15 km/h 49 % 0.0 in /  0 mm
13:33 22.2 °F /  -5.4 °C 11.0 °F /  -11.7 °C 1017.8 in /  34462.7 hPa SE 7.4 mph /  11.9 km/h 7.4 mph /  11.9 km/h 49 % 0.0 in /  0 mm
13:38 22.4 °F /  -5.3 °C 11.4 °F /  -11.4 °C 1017.8 in /  34462.7 hPa SW 1.9 mph /  3.1 km/h   50 % 0.0 in /  0 mm
13:43 23.4 °F /  -4.8 °C 11.8 °F /  -11.2 °C 1016.8 in /  34428.8 hPa South 3.7 mph /  6 km/h 3.7 mph /  6 km/h 48 % 0.0 in /  0 mm
13:48 23.7 °F /  -4.6 °C 12.1 °F /  -11.1 °C 1016.8 in /  34428.8 hPa ESE 5.8 mph /  9.3 km/h 5.8 mph /  9.3 km/h 48 % 0.0 in /  0 mm
13:53 22.9 °F /  -5.1 °C 11.3 °F /  -11.5 °C 1016.8 in /  34428.8 hPa ESE 6.9 mph /  11.1 km/h 6.9 mph /  11.1 km/h 48 % 0.0 in /  0 mm
13:58 23.1 °F /  -4.9 °C 11.5 °F /  -11.4 °C 1016.8 in /  34428.8 hPa ESE 7.9 mph /  12.7 km/h 7.9 mph /  12.7 km/h 48 % 0.0 in /  0 mm
14:03 22.2 °F /  -5.4 °C 11.3 °F /  -11.5 °C 1016.8 in /  34428.8 hPa ESE 9.7 mph /  15.6 km/h 9.7 mph /  15.6 km/h 50 % 0.0 in /  0 mm
14:08 22.1 °F /  -5.5 °C 11.5 °F /  -11.4 °C 1016.8 in /  34428.8 hPa ENE 14.8 mph /  23.8 km/h 14.8 mph /  23.8 km/h 51 % 0.0 in /  0 mm
14:13 21.9 °F /  -5.6 °C 11.3 °F /  -11.5 °C 1015.8 in /  34395 hPa ESE 13.7 mph /  22 km/h 13.7 mph /  22 km/h 51 % 0.0 in /  0 mm
14:18 21.8 °F /  -5.7 °C 11.5 °F /  -11.4 °C 1015.8 in /  34395 hPa ESE 7.4 mph /  11.9 km/h 7.4 mph /  11.9 km/h 52 % 0.0 in /  0 mm
14:23 22.2 °F /  -5.4 °C 12.2 °F /  -11 °C 1015.8 in /  34395 hPa ENE 10.8 mph /  17.4 km/h 10.8 mph /  17.4 km/h 53 % 0.0 in /  0 mm
14:28 21.7 °F /  -5.7 °C 11.7 °F /  -11.3 °C 1015.8 in /  34395 hPa ESE 14.8 mph /  23.8 km/h 14.8 mph /  23.8 km/h 53 % 0.0 in /  0 mm
14:33 21.7 °F /  -5.7 °C 11.7 °F /  -11.3 °C 1015.8 in /  34395 hPa ESE 3.7 mph /  6 km/h 3.7 mph /  6 km/h 53 % 0.0 in /  0 mm
14:38 21.8 °F /  -5.7 °C 11.8 °F /  -11.2 °C 1015.8 in /  34395 hPa SE 14.8 mph /  23.8 km/h 14.8 mph /  23.8 km/h 53 % 0.0 in /  0 mm
14:43 21.9 °F /  -5.6 °C 12.2 °F /  -11 °C 1014.8 in /  34361.1 hPa ESE 13.0 mph /  20.9 km/h 13.0 mph /  20.9 km/h 54 % 0.0 in /  0 mm
14:48 22.0 °F /  -5.6 °C 12.3 °F /  -10.9 °C 1014.8 in /  34361.1 hPa ENE 12.2 mph /  19.6 km/h 12.2 mph /  19.6 km/h 54 % 0.0 in /  0 mm
14:53 21.9 °F /  -5.6 °C 12.4 °F /  -10.9 °C 1014.8 in /  34361.1 hPa SE 16.7 mph /  26.9 km/h 16.7 mph /  26.9 km/h 55 % 0.0 in /  0 mm
14:58 21.7 °F /  -5.7 °C 12.3 °F /  -10.9 °C 1015.8 in /  34395 hPa East 16.7 mph /  26.9 km/h 16.7 mph /  26.9 km/h 55 % 0.0 in /  0 mm
15:03 21.7 °F /  -5.7 °C 12.3 °F /  -10.9 °C 1015.8 in /  34395 hPa ESE 13.0 mph /  20.9 km/h 13.0 mph /  20.9 km/h 55 % 0.0 in /  0 mm
15:08 21.6 °F /  -5.8 °C 12.2 °F /  -11 °C 1015.8 in /  34395 hPa NE 16.7 mph /  26.9 km/h 16.7 mph /  26.9 km/h 55 % 0.0 in /  0 mm
15:13 21.9 °F /  -5.6 °C 12.4 °F /  -10.9 °C 1015.8 in /  34395 hPa ENE 14.0 mph /  22.5 km/h 14.0 mph /  22.5 km/h 55 % 0.0 in /  0 mm
15:18 22.3 °F /  -5.4 °C 12.8 °F /  -10.7 °C 1015.8 in /  34395 hPa East 14.8 mph /  23.8 km/h 14.8 mph /  23.8 km/h 55 % 0.0 in /  0 mm
15:23 21.9 °F /  -5.6 °C 13.0 °F /  -10.6 °C 1015.8 in /  34395 hPa NE 16.7 mph /  26.9 km/h 16.7 mph /  26.9 km/h 57 % 0.0 in /  0 mm
15:28 21.7 °F /  -5.7 °C 12.8 °F /  -10.7 °C 1015.8 in /  34395 hPa West 11.1 mph /  17.9 km/h 11.1 mph /  17.9 km/h 57 % 0.0 in /  0 mm
15:33 21.5 °F /  -5.8 °C 12.6 °F /  -10.8 °C 1015.8 in /  34395 hPa NNE 16.9 mph /  27.2 km/h 16.9 mph /  27.2 km/h 57 % 0.0 in /  0 mm
15:38 21.6 °F /  -5.8 °C 12.7 °F /  -10.7 °C 1015.8 in /  34395 hPa SSE 16.7 mph /  26.9 km/h 16.7 mph /  26.9 km/h 57 % 0.0 in /  0 mm
15:43 21.5 °F /  -5.8 °C 12.6 °F /  -10.8 °C 1014.8 in /  34361.1 hPa ENE 16.7 mph /  26.9 km/h 16.7 mph /  26.9 km/h 57 % 0.0 in /  0 mm
15:48 21.3 °F /  -5.9 °C 12.4 °F /  -10.9 °C 1014.8 in /  34361.1 hPa SE 16.7 mph /  26.9 km/h 16.7 mph /  26.9 km/h 57 % 0.0 in /  0 mm
15:53 21.2 °F /  -6 °C 12.6 °F /  -10.8 °C 1014.8 in /  34361.1 hPa ENE 13.0 mph /  20.9 km/h 13.0 mph /  20.9 km/h 58 % 0.0 in /  0 mm
15:58 21.4 °F /  -5.9 °C 12.5 °F /  -10.8 °C 1015.8 in /  34395 hPa ESE 13.0 mph /  20.9 km/h 13.0 mph /  20.9 km/h 57 % 0.0 in /  0 mm
16:00 21.4 °F /  -5.9 °C 12.5 °F /  -10.8 °C 1015.8 in /  34395 hPa SE 20.1 mph /  32.3 km/h 20.1 mph /  32.3 km/h 57 % 0.0 in /  0 mm
16:05 21.2 °F /  -6 °C 12.3 °F /  -10.9 °C 1015.8 in /  34395 hPa NNE 13.0 mph /  20.9 km/h 13.0 mph /  20.9 km/h 57 % 0.0 in /  0 mm
16:10 21.2 °F /  -6 °C 12.3 °F /  -10.9 °C 1015.8 in /  34395 hPa East 11.1 mph /  17.9 km/h 11.1 mph /  17.9 km/h 57 % 0.0 in /  0 mm
16:15 21.7 °F /  -5.7 °C 12.8 °F /  -10.7 °C 1015.8 in /  34395 hPa SE 9.3 mph /  15 km/h 9.3 mph /  15 km/h 57 % 0.0 in /  0 mm
16:20 21.6 °F /  -5.8 °C 12.7 °F /  -10.7 °C 1015.8 in /  34395 hPa SE 7.9 mph /  12.7 km/h 7.9 mph /  12.7 km/h 57 % 0.0 in /  0 mm
16:25 21.5 °F /  -5.8 °C 12.6 °F /  -10.8 °C 1015.8 in /  34395 hPa ESE 16.7 mph /  26.9 km/h 16.7 mph /  26.9 km/h 57 % 0.0 in /  0 mm
16:30 21.3 °F /  -5.9 °C 12.4 °F /  -10.9 °C 1015.8 in /  34395 hPa ENE 14.8 mph /  23.8 km/h 14.8 mph /  23.8 km/h 57 % 0.0 in /  0 mm
16:35 21.2 °F /  -6 °C 12.3 °F /  -10.9 °C 1015.8 in /  34395 hPa East 9.3 mph /  15 km/h 9.3 mph /  15 km/h 57 % 0.0 in /  0 mm
16:40 21.0 °F /  -6.1 °C 12.2 °F /  -11 °C 1015.8 in /  34395 hPa ESE 11.1 mph /  17.9 km/h 11.1 mph /  17.9 km/h 57 % 0.0 in /  0 mm
16:45 21.0 °F /  -6.1 °C 12.2 °F /  -11 °C 1014.8 in /  34361.1 hPa ENE 11.1 mph /  17.9 km/h 11.1 mph /  17.9 km/h 57 % 0.0 in /  0 mm
16:50 21.0 °F /  -6.1 °C 12.2 °F /  -11 °C 1014.8 in /  34361.1 hPa NNE 11.1 mph /  17.9 km/h 11.1 mph /  17.9 km/h 57 % 0.0 in /  0 mm
16:55 20.8 °F /  -6.2 °C 12.2 °F /  -11 °C 1014.8 in /  34361.1 hPa East 11.1 mph /  17.9 km/h 11.1 mph /  17.9 km/h 58 % 0.0 in /  0 mm
17:00 20.8 °F /  -6.2 °C 12.2 °F /  -11 °C 1014.8 in /  34361.1 hPa East 9.3 mph /  15 km/h 9.3 mph /  15 km/h 58 % 0.0 in /  0 mm
17:05 20.6 °F /  -6.3 °C 12.1 °F /  -11.1 °C 1014.8 in /  34361.1 hPa ESE 11.1 mph /  17.9 km/h 11.1 mph /  17.9 km/h 58 % 0.0 in /  0 mm
17:10 20.3 °F /  -6.5 °C 11.8 °F /  -11.2 °C 1014.8 in /  34361.1 hPa NNW 14.8 mph /  23.8 km/h 14.8 mph /  23.8 km/h 58 % 0.0 in /  0 mm
17:15 20.3 °F /  -6.5 °C 12.0 °F /  -11.1 °C 1014.8 in /  34361.1 hPa ESE 18.5 mph /  29.8 km/h 18.5 mph /  29.8 km/h 59 % 0.0 in /  0 mm
17:21 20.4 °F /  -6.4 °C 12.1 °F /  -11.1 °C 1014.8 in /  34361.1 hPa East 9.3 mph /  15 km/h 9.3 mph /  15 km/h 59 % 0.0 in /  0 mm
17:26 20.5 °F /  -6.4 °C 12.2 °F /  -11 °C 1014.8 in /  34361.1 hPa ESE 13.0 mph /  20.9 km/h 13.0 mph /  20.9 km/h 59 % 0.0 in /  0 mm
17:31 20.4 °F /  -6.4 °C 12.1 °F /  -11.1 °C 1014.8 in /  34361.1 hPa ENE 14.8 mph /  23.8 km/h 14.8 mph /  23.8 km/h 59 % 0.0 in /  0 mm
17:36 20.4 °F /  -6.4 °C 12.1 °F /  -11.1 °C 1014.8 in /  34361.1 hPa ESE 9.3 mph /  15 km/h 9.3 mph /  15 km/h 59 % 0.0 in /  0 mm
17:41 20.4 °F /  -6.4 °C 12.1 °F /  -11.1 °C 1014.8 in /  34361.1 hPa ENE 13.0 mph /  20.9 km/h 13.0 mph /  20.9 km/h 59 % 0.0 in /  0 mm
17:46 20.1 °F /  -6.6 °C 11.8 °F /  -11.2 °C 1014.8 in /  34361.1 hPa ESE 13.0 mph /  20.9 km/h 13.0 mph /  20.9 km/h 59 % 0.0 in /  0 mm
17:51 20.1 °F /  -6.6 °C 11.8 °F /  -11.2 °C 1014.8 in /  34361.1 hPa ENE 13.0 mph /  20.9 km/h 13.0 mph /  20.9 km/h 59 % 0.0 in /  0 mm
17:56 19.9 °F /  -6.7 °C 11.9 °F /  -11.2 °C 1014.8 in /  34361.1 hPa ENE 9.3 mph /  15 km/h 9.3 mph /  15 km/h 60 % 0.0 in /  0 mm
18:02 20.0 °F /  -6.7 °C 11.7 °F /  -11.3 °C 1014.8 in /  34361.1 hPa North 11.1 mph /  17.9 km/h 11.1 mph /  17.9 km/h 59 % 0.0 in /  0 mm
18:07 19.8 °F /  -6.8 °C 11.8 °F /  -11.2 °C 1014.8 in /  34361.1 hPa ESE 9.3 mph /  15 km/h 9.3 mph /  15 km/h 60 % 0.0 in /  0 mm
18:12 19.9 °F /  -6.7 °C 11.7 °F /  -11.3 °C 1014.8 in /  34361.1 hPa ESE 11.1 mph /  17.9 km/h 11.1 mph /  17.9 km/h 59 % 0.0 in /  0 mm
18:17 20.0 °F /  -6.7 °C 11.5 °F /  -11.4 °C 1014.8 in /  34361.1 hPa ESE 14.8 mph /  23.8 km/h 14.8 mph /  23.8 km/h 58 % 0.0 in /  0 mm
18:22 20.0 °F /  -6.7 °C 11.5 °F /  -11.4 °C 1014.8 in /  34361.1 hPa East 9.3 mph /  15 km/h 9.3 mph /  15 km/h 58 % 0.0 in /  0 mm
18:27 19.9 °F /  -6.7 °C 11.7 °F /  -11.3 °C 1014.8 in /  34361.1 hPa ESE 16.1 mph /  25.9 km/h 16.1 mph /  25.9 km/h 59 % 0.0 in /  0 mm
18:32 19.8 °F /  -6.8 °C 11.6 °F /  -11.3 °C 1014.8 in /  34361.1 hPa SSE 13.0 mph /  20.9 km/h 13.0 mph /  20.9 km/h 59 % 0.0 in /  0 mm
18:37 19.8 °F /  -6.8 °C 11.6 °F /  -11.3 °C 1014.8 in /  34361.1 hPa East 9.3 mph /  15 km/h 9.3 mph /  15 km/h 59 % 0.0 in /  0 mm
18:42 19.6 °F /  -6.9 °C 11.1 °F /  -11.6 °C 1014.8 in /  34361.1 hPa East 9.3 mph /  15 km/h 9.3 mph /  15 km/h 58 % 0.0 in /  0 mm
18:47 19.5 °F /  -6.9 °C 11.0 °F /  -11.7 °C 1014.8 in /  34361.1 hPa ESE 9.3 mph /  15 km/h 9.3 mph /  15 km/h 58 % 0.0 in /  0 mm
18:52 19.5 °F /  -6.9 °C 11.0 °F /  -11.7 °C 1014.8 in /  34361.1 hPa SSE 9.3 mph /  15 km/h 9.3 mph /  15 km/h 58 % 0.0 in /  0 mm
18:57 19.5 °F /  -6.9 °C 11.3 °F /  -11.5 °C 1014.8 in /  34361.1 hPa SSE 5.6 mph /  9 km/h 5.6 mph /  9 km/h 59 % 0.0 in /  0 mm
19:02 19.5 °F /  -6.9 °C 11.0 °F /  -11.7 °C 1014.8 in /  34361.1 hPa ESE 5.8 mph /  9.3 km/h 5.8 mph /  9.3 km/h 58 % 0.0 in /  0 mm
19:07 19.4 °F /  -7 °C 10.9 °F /  -11.7 °C 1014.8 in /  34361.1 hPa WSW 5.6 mph /  9 km/h 5.6 mph /  9 km/h 58 % 0.0 in /  0 mm
19:12 19.5 °F /  -6.9 °C 10.8 °F /  -11.8 °C 1014.8 in /  34361.1 hPa SW 5.6 mph /  9 km/h 5.6 mph /  9 km/h 57 % 0.0 in /  0 mm
19:17 19.5 °F /  -6.9 °C 10.5 °F /  -11.9 °C 1014.8 in /  34361.1 hPa SSW 3.7 mph /  6 km/h 3.7 mph /  6 km/h 56 % 0.0 in /  0 mm
19:20 14.3 °F /  -9.8 °C 7.8 °F /  -13.4 °C 1015.8 in /  34395 hPa Calm     65 % 0.0 in /  0 mm
19:22 19.4 °F /  -7 °C 10.4 °F /  -12 °C 1014.8 in /  34361.1 hPa WNW 1.9 mph /  3.1 km/h   56 % 0.0 in /  0 mm
19:27 19.3 °F /  -7.1 °C 10.3 °F /  -12.1 °C 1014.8 in /  34361.1 hPa SW 1.9 mph /  3.1 km/h   56 % 0.0 in /  0 mm
19:30 14.3 °F /  -9.8 °C 7.8 °F /  -13.4 °C 1015.8 in /  34395 hPa Calm     65 % 0.0 in /  0 mm
19:32 19.3 °F /  -7.1 °C 10.1 °F /  -12.2 °C 1014.8 in /  34361.1 hPa West 3.7 mph /  6 km/h 3.7 mph /  6 km/h 55 % 0.0 in /  0 mm
19:37 19.2 °F /  -7.1 °C 9.9 °F /  -12.3 °C 1014.8 in /  34361.1 hPa WSW 3.7 mph /  6 km/h 3.7 mph /  6 km/h 55 % 0.0 in /  0 mm
19:40 14.1 °F /  -9.9 °C 7.8 °F /  -13.4 °C 1015.8 in /  34395 hPa Calm     66 % 0.0 in /  0 mm
19:42 19.2 °F /  -7.1 °C 9.9 °F /  -12.3 °C 1014.8 in /  34361.1 hPa South 7.4 mph /  11.9 km/h 7.4 mph /  11.9 km/h 55 % 0.0 in /  0 mm
19:47 19.1 °F /  -7.2 °C 9.6 °F /  -12.4 °C 1014.8 in /  34361.1 hPa SW 5.6 mph /  9 km/h 5.6 mph /  9 km/h 54 % 0.0 in /  0 mm
19:50 13.9 °F /  -10.1 °C 7.7 °F /  -13.5 °C 1015.8 in /  34395 hPa Calm     66 % 0.0 in /  0 mm
19:52 18.9 °F /  -7.3 °C 9.4 °F /  -12.6 °C 1014.8 in /  34361.1 hPa WSW 10.3 mph /  16.6 km/h 10.3 mph /  16.6 km/h 54 % 0.0 in /  0 mm
19:57 18.6 °F /  -7.4 °C 9.1 °F /  -12.7 °C 1014.8 in /  34361.1 hPa SW 9.3 mph /  15 km/h 9.3 mph /  15 km/h 54 % 0.0 in /  0 mm
20:00 13.7 °F /  -10.2 °C 7.7 °F /  -13.5 °C 1015.8 in /  34395 hPa Calm     67 % 0.0 in /  0 mm
20:02 18.3 °F /  -7.6 °C 8.6 °F /  -13 °C 1014.8 in /  34361.1 hPa West 7.4 mph /  11.9 km/h 7.4 mph /  11.9 km/h 53 % 0.0 in /  0 mm
20:08 18.2 °F /  -7.7 °C 8.4 °F /  -13.1 °C 1014.8 in /  34361.1 hPa SW 7.4 mph /  11.9 km/h 7.4 mph /  11.9 km/h 53 % 0.0 in /  0 mm
20:10 13.6 °F /  -10.2 °C 7.6 °F /  -13.6 °C 1015.8 in /  34395 hPa Calm     67 % 0.0 in /  0 mm
20:13 18.0 °F /  -7.8 °C 8.3 °F /  -13.2 °C 1015.8 in /  34395 hPa West 5.6 mph /  9 km/h 5.6 mph /  9 km/h 53 % 0.0 in /  0 mm
20:18 18.0 °F /  -7.8 °C 8.3 °F /  -13.2 °C 1015.8 in /  34395 hPa SW 5.6 mph /  9 km/h 5.6 mph /  9 km/h 53 % 0.0 in /  0 mm
20:20 13.6 °F /  -10.2 °C 7.8 °F /  -13.4 °C 1015.8 in /  34395 hPa Calm     68 % 0.0 in /  0 mm
20:23 17.8 °F /  -7.9 °C 8.1 °F /  -13.3 °C 1015.8 in /  34395 hPa West 3.7 mph /  6 km/h 3.7 mph /  6 km/h 53 % 0.0 in /  0 mm
20:28 17.7 °F /  -7.9 °C 8.0 °F /  -13.3 °C 1015.8 in /  34395 hPa SW 5.6 mph /  9 km/h 5.6 mph /  9 km/h 53 % 0.0 in /  0 mm
20:30 13.5 °F /  -10.3 °C 7.9 °F /  -13.4 °C 1015.8 in /  34395 hPa Calm     69 % 0.0 in /  0 mm
20:33 17.5 °F /  -8.1 °C 7.8 °F /  -13.4 °C 1015.8 in /  34395 hPa SW 5.8 mph /  9.3 km/h 5.8 mph /  9.3 km/h 53 % 0.0 in /  0 mm
20:38 17.4 °F /  -8.1 °C 7.7 °F /  -13.5 °C 1015.8 in /  34395 hPa SW 5.6 mph /  9 km/h 5.6 mph /  9 km/h 53 % 0.0 in /  0 mm
20:40 13.4 °F /  -10.3 °C 7.8 °F /  -13.4 °C 1015.8 in /  34395 hPa Calm     69 % 0.0 in /  0 mm
20:43 17.3 °F /  -8.2 °C 7.6 °F /  -13.6 °C 1015.8 in /  34395 hPa SW 5.6 mph /  9 km/h 5.6 mph /  9 km/h 53 % 0.0 in /  0 mm
20:48 17.1 °F /  -8.3 °C 7.7 °F /  -13.5 °C 1015.8 in /  34395 hPa WSW 7.4 mph /  11.9 km/h 7.4 mph /  11.9 km/h 54 % 0.0 in /  0 mm
20:50 13.2 °F /  -10.4 °C 7.6 °F /  -13.6 °C 1015.8 in /  34395 hPa NE 1.6 mph /  2.6 km/h 3.2 mph /  5.1 km/h 69 % 0.0 in /  0 mm
20:53 17.0 °F /  -8.3 °C 7.6 °F /  -13.6 °C 1015.8 in /  34395 hPa WSW 5.6 mph /  9 km/h 5.6 mph /  9 km/h 54 % 0.0 in /  0 mm
20:58 16.9 °F /  -8.4 °C 7.8 °F /  -13.4 °C 1015.8 in /  34395 hPa WSW 9.3 mph /  15 km/h 9.3 mph /  15 km/h 55 % 0.0 in /  0 mm
21:00 13.1 °F /  -10.5 °C 7.6 °F /  -13.6 °C 1015.8 in /  34395 hPa NE 1.6 mph /  2.6 km/h 3.2 mph /  5.1 km/h 69 % 0.0 in /  0 mm
21:03 16.8 °F /  -8.4 °C 7.7 °F /  -13.5 °C 1015.8 in /  34395 hPa WSW 7.4 mph /  11.9 km/h 7.4 mph /  11.9 km/h 55 % 0.0 in /  0 mm
21:08 16.7 °F /  -8.5 °C 7.6 °F /  -13.6 °C 1015.8 in /  34395 hPa SW 5.6 mph /  9 km/h 5.6 mph /  9 km/h 55 % 0.0 in /  0 mm
21:10 13.0 °F /  -10.6 °C 7.7 °F /  -13.5 °C 1015.8 in /  34395 hPa Calm   1.6 mph /  2.6 km/h 70 % 0.0 in /  0 mm
21:13 16.6 °F /  -8.6 °C 7.8 °F /  -13.4 °C 1015.8 in /  34395 hPa SW 3.2 mph /  5.1 km/h 3.2 mph /  5.1 km/h 56 % 0.0 in /  0 mm
21:18 16.6 °F /  -8.6 °C 7.8 °F /  -13.4 °C 1015.8 in /  34395 hPa SW 3.9 mph /  6.3 km/h 3.9 mph /  6.3 km/h 56 % 0.0 in /  0 mm
21:20 12.8 °F /  -10.7 °C 7.4 °F /  -13.7 °C 1014.8 in /  34361.1 hPa NNE 1.6 mph /  2.6 km/h 3.2 mph /  5.1 km/h 70 % 0.0 in /  0 mm
21:23 16.5 °F /  -8.6 °C 7.9 °F /  -13.4 °C 1015.8 in /  34395 hPa West 3.7 mph /  6 km/h 3.7 mph /  6 km/h 57 % 0.0 in /  0 mm
21:28 16.4 °F /  -8.7 °C 7.8 °F /  -13.4 °C 1015.8 in /  34395 hPa WSW 3.7 mph /  6 km/h 3.7 mph /  6 km/h 57 % 0.0 in /  0 mm
21:30 12.6 °F /  -10.8 °C 7.5 °F /  -13.6 °C 1014.8 in /  34361.1 hPa NE 1.6 mph /  2.6 km/h 1.6 mph /  2.6 km/h 71 % 0.0 in /  0 mm
21:34 16.4 °F /  -8.7 °C 7.8 °F /  -13.4 °C 1015.8 in /  34395 hPa WSW 3.9 mph /  6.3 km/h 3.9 mph /  6.3 km/h 57 % 0.0 in /  0 mm
21:39 16.3 °F /  -8.7 °C 8.0 °F /  -13.3 °C 1015.8 in /  34395 hPa SW 4.7 mph /  7.6 km/h 4.7 mph /  7.6 km/h 58 % 0.0 in /  0 mm
21:40 12.5 °F /  -10.8 °C 7.4 °F /  -13.7 °C 1014.8 in /  34361.1 hPa Calm   1.6 mph /  2.6 km/h 71 % 0.0 in /  0 mm
21:44 16.2 °F /  -8.8 °C 7.9 °F /  -13.4 °C 1015.8 in /  34395 hPa WSW 3.9 mph /  6.3 km/h 3.9 mph /  6.3 km/h 58 % 0.0 in /  0 mm
21:49 16.2 °F /  -8.8 °C 8.2 °F /  -13.2 °C 1015.8 in /  34395 hPa West 1.9 mph /  3.1 km/h 1.9 mph /  3.1 km/h 59 % 0.0 in /  0 mm
21:50 16.2 °F /  -8.8 °C 8.2 °F /  -13.2 °C 1015.8 in /  34395 hPa West 1.9 mph /  3.1 km/h   59 % 0.0 in /  0 mm
21:55 16.1 °F /  -8.8 °C 8.1 °F /  -13.3 °C 1015.8 in /  34395 hPa WSW 3.7 mph /  6 km/h 3.7 mph /  6 km/h 59 % 0.0 in /  0 mm
22:00 16.0 °F /  -8.9 °C 8.0 °F /  -13.3 °C 1014.8 in /  34361.1 hPa West 2.6 mph /  4.2 km/h 2.6 mph /  4.2 km/h 59 % 0.0 in /  0 mm
22:05 16.0 °F /  -8.9 °C 8.2 °F /  -13.2 °C 1014.8 in /  34361.1 hPa WSW 1.9 mph /  3.1 km/h   60 % 0.0 in /  0 mm
22:10 16.0 °F /  -8.9 °C 8.2 °F /  -13.2 °C 1014.8 in /  34361.1 hPa Calm     60 % 0.0 in /  0 mm
22:15 15.9 °F /  -8.9 °C 8.2 °F /  -13.2 °C 1015.8 in /  34395 hPa Calm     60 % 0.0 in /  0 mm
22:20 15.9 °F /  -8.9 °C 8.4 °F /  -13.1 °C 1015.8 in /  34395 hPa Calm     61 % 0.0 in /  0 mm
22:25 15.8 °F /  -9 °C 8.3 °F /  -13.2 °C 1015.8 in /  34395 hPa Calm     61 % 0.0 in /  0 mm
22:30 15.7 °F /  -9.1 °C 8.2 °F /  -13.2 °C 1015.8 in /  34395 hPa Calm     61 % 0.0 in /  0 mm
22:35 15.6 °F /  -9.1 °C 8.1 °F /  -13.3 °C 1015.8 in /  34395 hPa Calm     61 % 0.0 in /  0 mm
22:40 15.6 °F /  -9.1 °C 8.1 °F /  -13.3 °C 1015.8 in /  34395 hPa Calm     61 % 0.0 in /  0 mm
22:45 15.5 °F /  -9.2 °C 8.2 °F /  -13.2 °C 1015.8 in /  34395 hPa Calm     62 % 0.0 in /  0 mm
22:50 15.3 °F /  -9.3 °C 8.1 °F /  -13.3 °C 1015.8 in /  34395 hPa Calm     62 % 0.0 in /  0 mm
22:55 15.3 °F /  -9.3 °C 8.1 °F /  -13.3 °C 1015.8 in /  34395 hPa Calm     62 % 0.0 in /  0 mm
23:00 15.2 °F /  -9.3 °C 7.9 °F /  -13.4 °C 1014.8 in /  34361.1 hPa Calm     62 % 0.0 in /  0 mm
23:05 15.2 °F /  -9.3 °C 8.2 °F /  -13.2 °C 1014.8 in /  34361.1 hPa Calm     63 % 0.0 in /  0 mm
23:10 15.1 °F /  -9.4 °C 8.1 °F /  -13.3 °C 1014.8 in /  34361.1 hPa Calm     63 % 0.0 in /  0 mm
23:15 15.0 °F /  -9.4 °C 8.0 °F /  -13.3 °C 1015.8 in /  34395 hPa Calm     63 % 0.0 in /  0 mm
23:20 15.1 °F /  -9.4 °C 8.3 °F /  -13.2 °C 1015.8 in /  34395 hPa Calm     64 % 0.0 in /  0 mm
23:25 15.0 °F /  -9.4 °C 8.2 °F /  -13.2 °C 1015.8 in /  34395 hPa Calm     64 % 0.0 in /  0 mm
23:30 15.0 °F /  -9.4 °C 8.2 °F /  -13.2 °C 1015.8 in /  34395 hPa Calm     64 % 0.0 in /  0 mm
23:35 14.9 °F /  -9.5 °C 8.2 °F /  -13.2 °C 1015.8 in /  34395 hPa Calm     64 % 0.0 in /  0 mm
23:40 14.7 °F /  -9.6 °C 7.9 °F /  -13.4 °C 1015.8 in /  34395 hPa Calm     64 % 0.0 in /  0 mm
23:45 14.7 °F /  -9.6 °C 7.9 °F /  -13.4 °C 1014.8 in /  34361.1 hPa Calm     64 % 0.0 in /  0 mm
23:50 14.6 °F /  -9.7 °C 7.9 °F /  -13.4 °C 1014.8 in /  34361.1 hPa Calm     64 % 0.0 in /  0 mm
23:55 14.6 °F /  -9.7 °C 7.9 °F /  -13.4 °C 1014.8 in /  34361.1 hPa Calm     64 % 0.0 in /  0 mm
Meteo Sesrovires
Elogis d' Weather Underground - 1.5 mb

Guio original per  Jim McMurry - jmcmurry@mwt.net Adaptat per a la plantilla per  Wim van der Kuil - Leuven-Template.eu

Trobareu la nostra informacio del temps tambe a:

Weather Underground

AWEKAS